createdAt,value
2022-10-23T00:02:12.809Z,100455.09
2022-10-23T00:04:43.785Z,100401.91
2022-10-23T00:07:18.704Z,100431.09
2022-10-23T00:09:48.036Z,100403.25
2022-10-23T00:12:23.040Z,100424.94
2022-10-23T00:14:53.744Z,100470.53
2022-10-23T00:17:26.922Z,100467.41
2022-10-23T00:19:55.792Z,100426.38
2022-10-23T00:22:24.914Z,100444.19
2022-10-23T00:24:53.496Z,100467.75
2022-10-23T00:27:21.599Z,100433.63
2022-10-23T00:29:50.350Z,100454.03
2022-10-23T00:32:20.742Z,100395.41
2022-10-23T00:34:51.418Z,100419.88
2022-10-23T00:37:21.035Z,100424.47
2022-10-23T00:39:51.097Z,100460.34
2022-10-23T00:42:25.457Z,100452.84
2022-10-23T00:45:22.188Z,100388.19
2022-10-23T00:47:52.512Z,100389.41
2022-10-23T00:50:26.354Z,100462.16
2022-10-23T00:52:58.141Z,100422.66
2022-10-23T00:55:31.869Z,100432.44
2022-10-23T00:58:04.879Z,100454.28
2022-10-23T01:00:45.021Z,100439.03
2022-10-23T01:03:17.882Z,100415.31
2022-10-23T01:05:55.029Z,100393.28
2022-10-23T01:08:31.411Z,100389.25
2022-10-23T01:11:07.000Z,100424.16
2022-10-23T01:13:52.720Z,100424.38
2022-10-23T01:16:30.971Z,100389.81
2022-10-23T01:19:11.449Z,100375.09
2022-10-23T01:22:02.509Z,100347.41
2022-10-23T01:24:45.269Z,100412.09
2022-10-23T01:27:29.058Z,100412.31
2022-10-23T01:30:08.463Z,100391.97
2022-10-23T01:32:48.305Z,100415.94
2022-10-23T01:35:23.499Z,100389.50
2022-10-23T01:38:02.706Z,100410.44
2022-10-23T01:40:37.338Z,100404.38
2022-10-23T01:43:13.140Z,100402.84
2022-10-23T01:45:47.773Z,100330.84
2022-10-23T01:48:26.533Z,100400.31
2022-10-23T01:50:59.171Z,100406.16
2022-10-23T01:53:35.455Z,100361.03
2022-10-23T01:56:08.619Z,100333.34
2022-10-23T01:58:40.937Z,100376.16
2022-10-23T02:01:12.540Z,100372.75
2022-10-23T02:03:43.135Z,100386.19
2022-10-23T02:06:11.570Z,100362.44
2022-10-23T02:08:39.721Z,100394.06
2022-10-23T02:11:11.348Z,100349.06
2022-10-23T02:13:48.611Z,100371.50
2022-10-23T02:16:23.961Z,100335.28
2022-10-23T02:19:02.029Z,100338.72
2022-10-23T02:21:34.551Z,100326.19
2022-10-23T02:24:06.788Z,100334.50
2022-10-23T02:26:43.189Z,100318.97
2022-10-23T02:29:21.708Z,100305.47
2022-10-23T02:31:50.393Z,100340.00
2022-10-23T02:34:19.827Z,100293.91
2022-10-23T02:36:49.972Z,100304.00
2022-10-23T02:39:18.198Z,100335.63
2022-10-23T02:41:53.037Z,100362.69
2022-10-23T02:44:37.733Z,100297.59
2022-10-23T02:47:18.988Z,100336.59
2022-10-23T02:50:00.074Z,100328.22
2022-10-23T02:52:37.749Z,100264.88
2022-10-23T02:55:22.232Z,100281.75
2022-10-23T02:57:58.425Z,100293.28
2022-10-23T03:00:34.730Z,100303.19
2022-10-23T03:03:11.376Z,100288.19
2022-10-23T03:05:42.024Z,100282.97
2022-10-23T03:08:11.658Z,100344.00
2022-10-23T03:10:40.298Z,100339.16
2022-10-23T03:13:09.174Z,100327.09
2022-10-23T03:15:39.087Z,100297.13
2022-10-23T03:18:10.014Z,100261.78
2022-10-23T03:20:41.494Z,100307.25
2022-10-23T03:23:16.964Z,100306.41
2022-10-23T03:25:45.907Z,100284.69
2022-10-23T03:28:17.465Z,100334.00
2022-10-23T03:30:48.146Z,100270.66
2022-10-23T03:33:16.890Z,100288.66
2022-10-23T03:35:49.581Z,100332.53
2022-10-23T03:38:18.258Z,100284.16
2022-10-23T03:40:47.527Z,100288.56
2022-10-23T03:43:21.957Z,100318.53
2022-10-23T03:45:58.240Z,100283.19
2022-10-23T03:48:26.594Z,100279.50
2022-10-23T03:50:55.479Z,100326.56
2022-10-23T03:53:24.593Z,100303.72
2022-10-23T03:55:53.835Z,100252.22
2022-10-23T03:58:26.069Z,100303.28
2022-10-23T04:00:57.721Z,100252.50
2022-10-23T04:03:26.164Z,100269.47
2022-10-23T04:05:59.088Z,100258.97
2022-10-23T04:08:28.257Z,100285.34
2022-10-23T04:10:59.762Z,100305.06
2022-10-23T04:13:28.957Z,100336.16
2022-10-23T04:16:01.533Z,100304.31
2022-10-23T04:18:29.691Z,100278.75
2022-10-23T04:20:58.385Z,100292.59
2022-10-23T04:23:28.839Z,100334.13
2022-10-23T04:26:00.883Z,100290.94
2022-10-23T04:28:32.760Z,100336.34
2022-10-23T04:31:04.313Z,100318.81
2022-10-23T04:33:33.058Z,100302.19
2022-10-23T04:36:01.924Z,100321.75
2022-10-23T04:38:35.701Z,100302.41
2022-10-23T04:41:07.215Z,100249.75
2022-10-23T04:43:39.523Z,100266.38
2022-10-23T04:46:09.685Z,100276.81
2022-10-23T04:48:38.510Z,100306.97
2022-10-23T04:51:11.024Z,100313.66
2022-10-23T04:53:42.338Z,100319.94
2022-10-23T04:56:15.171Z,100286.94
2022-10-23T04:58:46.927Z,100323.06
2022-10-23T05:01:17.107Z,100297.72
2022-10-23T05:03:45.703Z,100321.63
2022-10-23T05:06:14.521Z,100278.41
2022-10-23T05:08:48.888Z,100293.56
2022-10-23T05:11:21.325Z,100290.00
2022-10-23T05:13:53.779Z,100262.66
2022-10-23T05:16:37.293Z,100280.31
2022-10-23T05:19:09.376Z,100301.59
2022-10-23T05:21:40.521Z,100312.00
2022-10-23T05:24:10.112Z,100255.09
2022-10-23T05:26:49.258Z,100277.53
2022-10-23T05:29:21.625Z,100243.84
2022-10-23T05:31:56.711Z,100308.19
2022-10-23T05:34:36.055Z,100277.75
2022-10-23T05:37:13.869Z,100245.94
2022-10-23T05:39:43.391Z,100261.97
2022-10-23T05:42:14.033Z,100264.69
2022-10-23T05:44:43.846Z,100301.84
2022-10-23T05:47:13.877Z,100260.97
2022-10-23T05:49:46.024Z,100295.03
2022-10-23T05:52:15.522Z,100250.16
2022-10-23T05:54:43.676Z,100289.25
2022-10-23T05:57:11.490Z,100264.69
2022-10-23T05:59:39.403Z,100266.13
2022-10-23T06:02:07.237Z,100282.78
2022-10-23T06:04:36.757Z,100257.38
2022-10-23T06:07:05.093Z,100257.78
2022-10-23T06:09:33.131Z,100255.91
2022-10-23T06:12:02.384Z,100267.28
2022-10-23T06:14:30.332Z,100267.88
2022-10-23T06:16:58.184Z,100233.16
2022-10-23T06:19:26.571Z,100223.34
2022-10-23T06:22:00.370Z,100265.72
2022-10-23T06:24:29.349Z,100187.38
2022-10-23T06:26:57.434Z,100245.56
2022-10-23T06:29:25.197Z,100246.59
2022-10-23T06:31:52.955Z,100254.16
2022-10-23T06:34:20.673Z,100210.66
2022-10-23T06:36:48.416Z,100242.06
2022-10-23T06:39:17.518Z,100241.63
2022-10-23T06:41:45.432Z,100277.19
2022-10-23T06:44:13.155Z,100268.97
2022-10-23T06:46:40.903Z,100268.75
2022-10-23T06:49:08.715Z,100266.88
2022-10-23T06:51:36.555Z,100232.16
2022-10-23T06:54:04.409Z,100272.03
2022-10-23T06:56:35.066Z,100251.41
2022-10-23T06:59:03.127Z,100239.31
2022-10-23T07:01:30.984Z,100261.19
2022-10-23T07:04:00.046Z,100262.41
2022-10-23T07:06:27.969Z,100252.06
2022-10-23T07:08:59.971Z,100258.97
2022-10-23T07:11:27.831Z,100236.47
2022-10-23T07:14:01.824Z,100250.28
2022-10-23T07:16:30.250Z,100253.75
2022-10-23T07:19:01.468Z,100263.13
2022-10-23T07:21:30.922Z,100251.13
2022-10-23T07:23:59.676Z,100243.28
2022-10-23T07:26:27.512Z,100270.72
2022-10-23T07:28:55.889Z,100257.19
2022-10-23T07:31:28.196Z,100264.38
2022-10-23T07:33:56.607Z,100242.69
2022-10-23T07:36:24.713Z,100242.38
2022-10-23T07:38:53.603Z,100266.59
2022-10-23T07:41:21.540Z,100215.50
2022-10-23T07:43:49.445Z,100218.00
2022-10-23T07:46:17.537Z,100264.25
2022-10-23T07:48:49.219Z,100243.66
2022-10-23T07:51:18.532Z,100234.09
2022-10-23T07:53:47.066Z,100229.13
2022-10-23T07:56:17.070Z,100225.09
2022-10-23T07:58:49.183Z,100256.53
2022-10-23T08:01:21.588Z,100260.09
2022-10-23T08:03:53.544Z,100258.66
2022-10-23T08:06:24.724Z,100203.69
2022-10-23T08:08:56.122Z,100251.31
2022-10-23T08:11:28.180Z,100214.63
2022-10-23T08:14:00.132Z,100248.31
2022-10-23T08:16:29.446Z,100211.03
2022-10-23T08:19:00.146Z,100196.22
2022-10-23T08:21:28.994Z,100240.94
2022-10-23T08:24:01.672Z,100238.66
2022-10-23T08:26:30.773Z,100203.88
2022-10-23T08:29:03.016Z,100252.72
2022-10-23T08:31:31.241Z,100204.94
2022-10-23T08:34:05.609Z,100219.63
2022-10-23T08:36:38.585Z,100223.63
2022-10-23T08:39:08.157Z,100194.09
2022-10-23T08:41:38.107Z,100237.50
2022-10-23T08:44:18.479Z,100235.00
2022-10-23T08:46:50.947Z,100186.31
2022-10-23T08:49:42.388Z,100189.47
2022-10-23T08:52:18.419Z,100194.78
2022-10-23T08:55:03.396Z,100209.28
2022-10-23T08:57:42.870Z,100186.22
2022-10-23T09:00:16.971Z,100210.66
2022-10-23T09:02:48.164Z,100193.25
2022-10-23T09:05:29.649Z,100215.84
2022-10-23T09:08:09.471Z,100193.56
2022-10-23T09:10:58.223Z,100167.66
2022-10-23T09:13:41.986Z,100195.97
2022-10-23T09:16:25.461Z,100193.91
2022-10-23T09:19:00.980Z,100150.44
2022-10-23T09:21:31.130Z,100147.97
2022-10-23T09:24:01.423Z,100167.19
2022-10-23T09:26:33.370Z,100184.31
2022-10-23T09:29:15.674Z,100163.88
2022-10-23T09:31:50.600Z,100180.66
2022-10-23T09:34:22.163Z,100184.38
2022-10-23T09:36:56.834Z,100150.75
2022-10-23T09:39:30.684Z,100168.78
2022-10-23T09:42:02.864Z,100140.66
2022-10-23T09:44:33.863Z,100161.00
2022-10-23T09:47:11.366Z,100179.69
2022-10-23T09:49:48.378Z,100154.53
2022-10-23T09:52:35.779Z,100162.78
2022-10-23T09:55:20.724Z,100180.88
2022-10-23T09:57:48.999Z,100167.94
2022-10-23T10:00:19.668Z,100182.00
2022-10-23T10:02:58.152Z,100160.25
2022-10-23T10:05:28.436Z,100171.69
2022-10-23T10:08:04.656Z,100187.91
2022-10-23T10:10:39.093Z,100161.50
2022-10-23T10:13:15.453Z,100130.41
2022-10-23T10:15:52.062Z,100162.59
2022-10-23T10:18:27.489Z,100140.56
2022-10-23T10:21:17.885Z,100155.75
2022-10-23T10:23:50.999Z,100153.00
2022-10-23T10:26:31.636Z,100152.97
2022-10-23T10:29:09.043Z,100131.19
2022-10-23T10:31:50.663Z,100128.38
2022-10-23T10:34:29.704Z,100105.69
2022-10-23T10:37:03.053Z,100132.09
2022-10-23T10:39:43.299Z,100119.13
2022-10-23T10:42:43.397Z,100123.47
2022-10-23T10:45:27.359Z,100112.72
2022-10-23T10:48:16.012Z,100111.63
2022-10-23T10:50:48.884Z,100105.88
2022-10-23T10:53:25.427Z,100118.78
2022-10-23T10:55:56.674Z,100129.75
2022-10-23T10:58:35.481Z,100113.06
2022-10-23T11:01:07.771Z,100115.81
2022-10-23T11:03:42.427Z,100114.78
2022-10-23T11:06:16.025Z,100116.72
2022-10-23T11:08:56.381Z,100070.25
2022-10-23T11:11:33.296Z,100096.66
2022-10-23T11:14:01.427Z,100077.13
2022-10-23T11:16:33.614Z,100079.34
2022-10-23T11:19:11.407Z,100099.91
2022-10-23T11:21:45.973Z,100064.78
2022-10-23T11:24:57.260Z,100038.94
2022-10-23T11:28:00.535Z,100033.69
2022-10-23T11:30:40.421Z,100062.91
2022-10-23T11:33:33.483Z,100023.16
2022-10-23T11:36:18.125Z,100005.53
2022-10-23T11:38:48.710Z,100038.19
2022-10-23T11:41:27.059Z,100036.34
2022-10-23T11:44:01.994Z,100037.69
2022-10-23T11:46:34.071Z,100027.09
2022-10-23T11:49:24.671Z,100021.59
2022-10-23T11:52:05.636Z,100061.72
2022-10-23T11:57:24.546Z,100042.59
2022-10-23T11:59:57.600Z,100018.03
2022-10-23T12:02:32.302Z,100002.78
2022-10-23T12:05:06.431Z,100011.53
2022-10-23T12:07:42.691Z,100006.94
2022-10-23T12:10:31.670Z,100024.84
2022-10-23T12:13:32.481Z,99983.91
2022-10-23T12:16:02.704Z,100011.88
2022-10-23T12:18:36.670Z,99987.97
2022-10-23T12:21:06.304Z,99983.38
2022-10-23T12:23:51.827Z,100012.59
2022-10-23T12:26:50.619Z,99958.84
2022-10-23T12:29:29.062Z,99976.81
2022-10-23T12:32:09.206Z,99955.28
2022-10-23T12:34:49.955Z,99938.63
2022-10-23T12:37:59.407Z,99942.13
2022-10-23T12:40:32.610Z,99950.91
2022-10-23T12:43:02.987Z,99960.31
2022-10-23T12:45:34.333Z,99966.16
2022-10-23T12:48:04.181Z,99938.13
2022-10-23T12:50:37.207Z,99954.88
2022-10-23T12:53:18.105Z,99907.97
2022-10-23T12:55:57.324Z,99935.03
2022-10-23T12:58:27.591Z,99919.59
2022-10-23T13:00:58.185Z,99939.66
2022-10-23T13:03:30.167Z,99916.31
2022-10-23T13:05:59.849Z,99922.31
2022-10-23T13:08:36.007Z,99930.94
2022-10-23T13:11:05.888Z,99908.50
2022-10-23T13:13:33.869Z,99890.06
2022-10-23T13:16:01.767Z,99899.25
2022-10-23T13:18:42.361Z,99908.34
2022-10-23T13:21:18.032Z,99884.69
2022-10-23T13:23:46.876Z,99870.47
2022-10-23T13:26:34.119Z,99895.59
2022-10-23T13:29:07.424Z,99895.91
2022-10-23T13:31:37.765Z,99883.22
2022-10-23T13:34:28.063Z,99882.00
2022-10-23T13:36:59.377Z,99868.69
2022-10-23T13:39:29.835Z,99875.47
2022-10-23T13:42:01.212Z,99864.69
2022-10-23T13:44:29.076Z,99849.72
2022-10-23T13:46:57.472Z,99871.66
2022-10-23T13:49:26.786Z,99869.41
2022-10-23T13:51:56.276Z,99863.66
2022-10-23T13:56:59.210Z,99845.34
2022-10-23T13:59:27.514Z,99813.78
2022-10-23T14:01:55.801Z,99825.81
2022-10-23T14:04:23.977Z,99843.34
2022-10-23T14:06:58.547Z,99820.00
2022-10-23T14:09:26.837Z,99831.63
2022-10-23T14:11:54.798Z,99808.47
2022-10-23T14:14:22.640Z,99825.22
2022-10-23T14:16:52.700Z,99828.88
2022-10-23T14:19:20.610Z,99813.56
2022-10-23T14:21:48.601Z,99839.25
2022-10-23T14:24:17.877Z,99811.72
2022-10-23T14:26:45.693Z,99834.66
2022-10-23T14:29:21.340Z,99826.13
2022-10-23T14:31:51.025Z,99841.66
2022-10-23T14:34:18.892Z,99829.88
2022-10-23T14:36:56.759Z,99833.59
2022-10-23T14:39:33.469Z,99816.59
2022-10-23T14:42:01.722Z,99815.78
2022-10-23T14:44:29.671Z,99787.34
2022-10-23T14:46:58.577Z,99806.38
2022-10-23T14:49:26.693Z,99801.69
2022-10-23T14:51:54.615Z,99772.28
2022-10-23T14:54:22.448Z,99787.28
2022-10-23T14:56:51.623Z,99811.72
2022-10-23T14:59:19.471Z,99798.31
2022-10-23T15:01:48.423Z,99783.63
2022-10-23T15:04:17.109Z,99784.06
2022-10-23T15:06:46.380Z,99797.72
2022-10-23T15:09:14.439Z,99797.88
2022-10-23T15:11:42.478Z,99769.63
2022-10-23T15:14:11.675Z,99763.97
2022-10-23T15:16:42.011Z,99777.44
2022-10-23T15:19:13.588Z,99777.44
2022-10-23T15:21:45.320Z,99766.59
2022-10-23T15:24:13.277Z,99738.69
2022-10-23T15:26:43.067Z,99744.19
2022-10-23T15:29:14.468Z,99740.94
2022-10-23T15:31:49.460Z,99748.22
2022-10-23T15:34:20.214Z,99723.19
2022-10-23T15:36:49.320Z,99730.53
2022-10-23T15:39:19.318Z,99755.31
2022-10-23T15:41:48.070Z,99725.59
2022-10-23T15:44:19.672Z,99737.00
2022-10-23T15:46:48.309Z,99725.00
2022-10-23T15:49:16.916Z,99743.34
2022-10-23T15:51:45.742Z,99713.59
2022-10-23T15:54:19.063Z,99730.09
2022-10-23T15:56:52.309Z,99716.44
2022-10-23T15:59:24.069Z,99722.78
2022-10-23T16:01:52.965Z,99718.47
2022-10-23T16:04:21.123Z,99717.91
2022-10-23T16:06:49.389Z,99702.41
2022-10-23T16:09:17.825Z,99701.63
2022-10-23T16:11:45.749Z,99685.63
2022-10-23T16:14:15.795Z,99707.19
2022-10-23T16:16:45.574Z,99690.00
2022-10-23T16:19:14.151Z,99703.75
2022-10-23T16:21:42.705Z,99716.31
2022-10-23T16:24:11.102Z,99680.91
2022-10-23T16:26:39.538Z,99672.47
2022-10-23T16:29:09.703Z,99680.13
2022-10-23T16:31:37.775Z,99693.00
2022-10-23T16:34:08.139Z,99684.22
2022-10-23T16:36:38.922Z,99695.69
2022-10-23T16:39:08.189Z,99708.00
2022-10-23T16:41:37.630Z,99698.78
2022-10-23T16:44:06.103Z,99678.97
2022-10-23T16:46:35.416Z,99718.19
2022-10-23T16:49:04.211Z,99696.50
2022-10-23T16:51:34.450Z,99694.56
2022-10-23T16:54:02.598Z,99703.31
2022-10-23T16:56:31.479Z,99683.06
2022-10-23T16:59:00.558Z,99687.06
2022-10-23T17:01:31.122Z,99696.38
2022-10-23T17:03:59.441Z,99711.16
2022-10-23T17:06:30.146Z,99677.25
2022-10-23T17:09:00.814Z,99684.19
2022-10-23T17:11:30.441Z,99681.97
2022-10-23T17:14:00.990Z,99676.53
2022-10-23T17:16:30.580Z,99679.28
2022-10-23T17:18:59.177Z,99686.53
2022-10-23T17:21:27.316Z,99674.16
2022-10-23T17:23:55.282Z,99674.22
2022-10-23T17:26:24.622Z,99652.03
2022-10-23T17:28:52.557Z,99665.78
2022-10-23T17:31:22.716Z,99650.94
2022-10-23T17:33:52.996Z,99612.44
2022-10-23T17:36:22.352Z,99628.34
2022-10-23T17:38:50.671Z,99637.00
2022-10-23T17:41:20.777Z,99664.50
2022-10-23T17:43:50.461Z,99698.50
2022-10-23T17:46:19.589Z,99708.06
2022-10-23T17:48:47.514Z,99724.75
2022-10-23T17:51:17.337Z,99815.59
2022-10-23T17:53:47.731Z,99880.41
2022-10-23T17:56:22.426Z,99864.59
2022-10-23T17:58:52.529Z,99865.72
2022-10-23T18:01:33.249Z,99844.03
2022-10-23T18:04:05.375Z,99868.19
2022-10-23T18:06:35.439Z,99872.28
2022-10-23T18:09:05.200Z,99870.09
2022-10-23T18:11:36.359Z,99877.47
2022-10-23T18:14:07.293Z,99887.09
2022-10-23T18:16:37.158Z,99880.50
2022-10-23T18:19:06.115Z,99888.44
2022-10-23T18:21:34.761Z,99882.13
2022-10-23T18:24:03.369Z,99880.47
2022-10-23T18:26:34.902Z,99878.28
2022-10-23T18:29:04.315Z,99884.06
2022-10-23T18:31:33.775Z,99881.84
2022-10-23T18:34:04.216Z,99876.66
2022-10-23T18:36:34.657Z,99872.28
2022-10-23T18:39:02.960Z,99873.09
2022-10-23T18:41:34.597Z,99872.00
2022-10-23T18:44:03.143Z,99876.09
2022-10-23T18:46:31.380Z,99846.47
2022-10-23T18:49:01.193Z,99819.91
2022-10-23T18:51:32.907Z,99777.91
2022-10-23T18:54:03.058Z,99826.75
2022-10-23T18:56:34.291Z,99790.25
2022-10-23T18:59:05.365Z,99817.13
2022-10-23T19:01:33.935Z,99827.56
2022-10-23T19:04:04.968Z,99825.91
2022-10-23T19:06:38.648Z,99813.59
2022-10-23T19:09:09.647Z,99812.75
2022-10-23T19:11:38.197Z,99820.44
2022-10-23T19:14:07.040Z,99828.09
2022-10-23T19:16:39.159Z,99813.84
2022-10-23T19:19:14.371Z,99786.69
2022-10-23T19:21:43.843Z,99816.84
2022-10-23T19:24:16.584Z,99815.22
2022-10-23T19:26:46.342Z,99770.19
2022-10-23T19:29:20.063Z,99790.47
2022-10-23T19:31:49.980Z,99832.16
2022-10-23T19:34:20.647Z,99799.75
2022-10-23T19:36:48.920Z,99830.47
2022-10-23T19:39:18.017Z,99812.66
2022-10-23T19:41:46.780Z,99843.09
2022-10-23T19:44:15.970Z,99805.44
2022-10-23T19:46:45.103Z,99853.78
2022-10-23T19:49:13.204Z,99799.41
2022-10-23T19:51:50.395Z,99817.56
2022-10-23T19:54:20.701Z,99849.19
2022-10-23T19:56:49.265Z,99831.63
2022-10-23T19:59:18.351Z,99818.19
2022-10-23T20:01:48.917Z,99809.41
2022-10-23T20:04:18.001Z,99819.53
2022-10-23T20:06:48.829Z,99837.34
2022-10-23T20:09:16.945Z,99810.44
2022-10-23T20:11:45.539Z,99842.59
2022-10-23T20:14:15.450Z,99839.50
2022-10-23T20:16:45.922Z,99829.09
2022-10-23T20:19:15.478Z,99832.09
2022-10-23T20:21:45.989Z,99854.56
2022-10-23T20:24:17.890Z,99841.88
2022-10-23T20:26:50.045Z,99841.44
2022-10-23T20:29:18.677Z,99834.75
2022-10-23T20:31:46.709Z,99822.97
2022-10-23T20:34:15.681Z,99838.69
2022-10-23T20:36:46.804Z,99856.53
2022-10-23T20:39:18.951Z,99866.09
2022-10-23T20:41:47.029Z,99880.88
2022-10-23T20:46:45.204Z,99827.06
2022-10-23T20:49:13.841Z,99864.44
2022-10-23T20:51:42.705Z,99815.84
2022-10-23T20:54:10.700Z,99848.00
2022-10-23T20:56:40.818Z,99882.00
2022-10-23T20:59:12.179Z,99842.22
2022-10-23T21:01:41.902Z,99870.22
2022-10-23T21:04:12.972Z,99881.47
2022-10-23T21:07:04.462Z,99850.59
2022-10-23T21:09:31.629Z,99877.63
2022-10-23T21:12:00.963Z,99876.78
2022-10-23T21:14:28.845Z,99848.22
2022-10-23T21:16:56.771Z,99844.31
2022-10-23T21:19:24.953Z,99867.22
2022-10-23T21:21:53.004Z,99833.63
2022-10-23T21:24:20.992Z,99875.88
2022-10-23T21:26:48.852Z,99863.72
2022-10-23T21:29:19.468Z,99881.25
2022-10-23T21:31:52.974Z,99877.94
2022-10-23T21:34:21.062Z,99863.09
2022-10-23T21:37:11.382Z,99882.00
2022-10-23T21:39:36.570Z,99880.38
2022-10-23T21:42:04.624Z,99877.69
2022-10-23T21:44:34.075Z,99877.09
2022-10-23T21:47:01.899Z,99870.72
2022-10-23T21:49:30.227Z,99879.47
2022-10-23T21:51:58.384Z,99880.78
2022-10-23T21:54:26.389Z,99900.44
2022-10-23T21:56:54.974Z,99873.22
2022-10-23T21:59:25.923Z,99894.13
2022-10-23T22:01:57.142Z,99897.28
2022-10-23T22:04:25.239Z,99911.78
2022-10-23T22:06:53.180Z,99915.34
2022-10-23T22:09:22.543Z,99915.25
2022-10-23T22:11:50.982Z,99903.31
2022-10-23T22:14:19.012Z,99910.97
2022-10-23T22:16:47.185Z,99905.97
2022-10-23T22:19:18.302Z,99904.06
2022-10-23T22:21:47.598Z,99905.13
2022-10-23T22:24:17.441Z,99900.94
2022-10-23T22:26:47.688Z,99903.38
2022-10-23T22:29:18.042Z,99888.28
2022-10-23T22:31:49.650Z,99891.44
2022-10-23T22:34:28.692Z,99903.59
2022-10-23T22:37:10.313Z,99902.41
2022-10-23T22:39:38.402Z,99901.59
2022-10-23T22:42:06.292Z,99868.97
2022-10-23T22:44:34.480Z,99893.72
2022-10-23T22:47:02.227Z,99896.09
2022-10-23T22:49:31.477Z,99896.59
2022-10-23T22:51:59.286Z,99893.25
2022-10-23T22:54:27.283Z,99907.63
2022-10-23T22:56:55.181Z,99916.53
2022-10-23T22:59:23.025Z,99912.56
2022-10-23T23:01:51.277Z,99908.81
2022-10-23T23:07:10.838Z,99929.34
2022-10-23T23:09:40.130Z,99932.44
2022-10-23T23:12:09.761Z,99927.56
2022-10-23T23:14:37.740Z,99917.47
2022-10-23T23:17:06.276Z,99918.66
2022-10-23T23:19:34.512Z,99922.84
2022-10-23T23:22:02.681Z,99921.25
2022-10-23T23:24:32.376Z,99891.75
2022-10-23T23:27:00.782Z,99883.56
2022-10-23T23:29:29.651Z,99873.72
2022-10-23T23:31:58.014Z,99914.03
2022-10-23T23:34:25.994Z,99899.09
2022-10-23T23:36:53.990Z,99924.03
2022-10-23T23:39:22.053Z,99893.53
2022-10-23T23:41:51.461Z,99928.72
2022-10-23T23:44:19.386Z,99891.63
2022-10-23T23:46:47.341Z,99890.50
2022-10-23T23:49:15.423Z,99920.19
2022-10-23T23:51:43.430Z,99912.25
2022-10-23T23:54:11.575Z,99913.56
2022-10-23T23:56:39.779Z,99907.56
2022-10-23T23:59:09.266Z,99902.41
